sensor_id;sensor_type;location;lat;lon;timestamp;P1;durP1;ratioP1;P2;durP2;ratioP2
76495;SDS011;65329;52.544;4.662;2023-05-23T00:00:08;15.75;;;6.53;;
76495;SDS011;65329;52.544;4.662;2023-05-23T00:02:41;12.52;;;5.65;;
76495;SDS011;65329;52.544;4.662;2023-05-23T00:05:09;12.80;;;5.07;;
76495;SDS011;65329;52.544;4.662;2023-05-23T00:07:37;17.00;;;5.63;;
76495;SDS011;65329;52.544;4.662;2023-05-23T00:10:03;14.57;;;5.95;;
76495;SDS011;65329;52.544;4.662;2023-05-23T00:12:32;15.65;;;5.45;;
76495;SDS011;65329;52.544;4.662;2023-05-23T00:14:58;13.73;;;5.47;;
76495;SDS011;65329;52.544;4.662;2023-05-23T00:17:26;12.40;;;4.88;;
76495;SDS011;65329;52.544;4.662;2023-05-23T00:19:53;22.38;;;5.68;;
76495;SDS011;65329;52.544;4.662;2023-05-23T00:22:21;12.95;;;6.00;;
76495;SDS011;65329;52.544;4.662;2023-05-23T00:24:48;13.13;;;4.70;;
76495;SDS011;65329;52.544;4.662;2023-05-23T00:27:17;19.60;;;4.75;;
76495;SDS011;65329;52.544;4.662;2023-05-23T00:29:44;20.75;;;5.95;;
76495;SDS011;65329;52.544;4.662;2023-05-23T00:32:10;18.05;;;6.20;;
76495;SDS011;65329;52.544;4.662;2023-05-23T00:34:38;21.67;;;6.55;;
76495;SDS011;65329;52.544;4.662;2023-05-23T00:37:04;17.25;;;5.32;;
76495;SDS011;65329;52.544;4.662;2023-05-23T00:39:32;13.23;;;5.30;;
76495;SDS011;65329;52.544;4.662;2023-05-23T00:42:03;12.57;;;5.82;;
76495;SDS011;65329;52.544;4.662;2023-05-23T00:44:31;16.27;;;5.47;;
76495;SDS011;65329;52.544;4.662;2023-05-23T00:46:57;11.70;;;4.95;;
76495;SDS011;65329;52.544;4.662;2023-05-23T00:49:24;13.40;;;5.07;;
76495;SDS011;65329;52.544;4.662;2023-05-23T00:51:53;15.00;;;5.10;;
76495;SDS011;65329;52.544;4.662;2023-05-23T00:54:23;15.77;;;5.63;;
76495;SDS011;65329;52.544;4.662;2023-05-23T00:56:53;14.48;;;4.97;;
76495;SDS011;65329;52.544;4.662;2023-05-23T00:59:20;12.70;;;5.10;;
76495;SDS011;65329;52.544;4.662;2023-05-23T01:01:50;15.77;;;5.80;;
76495;SDS011;65329;52.544;4.662;2023-05-23T01:04:19;12.48;;;4.85;;
76495;SDS011;65329;52.544;4.662;2023-05-23T01:06:46;13.98;;;4.95;;
76495;SDS011;65329;52.544;4.662;2023-05-23T01:09:15;16.30;;;5.07;;
76495;SDS011;65329;52.544;4.662;2023-05-23T01:11:54;11.75;;;4.85;;
76495;SDS011;65329;52.544;4.662;2023-05-23T01:14:41;20.73;;;5.10;;
76495;SDS011;65329;52.544;4.662;2023-05-23T01:17:18;18.52;;;5.47;;
76495;SDS011;65329;52.544;4.662;2023-05-23T01:19:59;16.48;;;5.70;;
76495;SDS011;65329;52.544;4.662;2023-05-23T01:22:42;16.88;;;5.22;;
76495;SDS011;65329;52.544;4.662;2023-05-23T01:28:06;13.10;;;4.85;;
76495;SDS011;65329;52.544;4.662;2023-05-23T01:30:38;17.75;;;4.78;;
76495;SDS011;65329;52.544;4.662;2023-05-23T01:33:07;14.07;;;5.13;;
76495;SDS011;65329;52.544;4.662;2023-05-23T01:35:37;14.73;;;4.95;;
76495;SDS011;65329;52.544;4.662;2023-05-23T01:38:05;9.73;;;4.53;;
76495;SDS011;65329;52.544;4.662;2023-05-23T01:40:32;14.15;;;4.25;;
76495;SDS011;65329;52.544;4.662;2023-05-23T01:42:59;13.90;;;4.30;;
76495;SDS011;65329;52.544;4.662;2023-05-23T01:45:27;10.23;;;4.82;;
76495;SDS011;65329;52.544;4.662;2023-05-23T01:47:55;15.88;;;4.72;;
76495;SDS011;65329;52.544;4.662;2023-05-23T01:50:23;15.43;;;4.03;;
76495;SDS011;65329;52.544;4.662;2023-05-23T01:52:53;12.63;;;3.85;;
76495;SDS011;65329;52.544;4.662;2023-05-23T01:55:21;11.70;;;4.45;;
76495;SDS011;65329;52.544;4.662;2023-05-23T01:57:55;13.60;;;3.92;;
76495;SDS011;65329;52.544;4.662;2023-05-23T02:00:23;16.58;;;4.18;;
76495;SDS011;65329;52.544;4.662;2023-05-23T02:02:51;14.93;;;4.82;;
76495;SDS011;65329;52.544;4.662;2023-05-23T02:05:18;14.88;;;4.28;;
76495;SDS011;65329;52.544;4.662;2023-05-23T02:07:45;8.70;;;3.00;;
76495;SDS011;65329;52.544;4.662;2023-05-23T02:10:13;11.02;;;3.80;;
76495;SDS011;65329;52.544;4.662;2023-05-23T02:12:40;10.20;;;3.20;;
76495;SDS011;65329;52.544;4.662;2023-05-23T02:15:07;11.18;;;3.15;;
76495;SDS011;65329;52.544;4.662;2023-05-23T02:17:35;12.85;;;3.58;;
76495;SDS011;65329;52.544;4.662;2023-05-23T02:20:02;9.20;;;2.85;;
76495;SDS011;65329;52.544;4.662;2023-05-23T02:22:29;16.17;;;3.50;;
76495;SDS011;65329;52.544;4.662;2023-05-23T02:24:56;8.52;;;2.92;;
76495;SDS011;65329;52.544;4.662;2023-05-23T02:27:23;7.50;;;2.83;;
76495;SDS011;65329;52.544;4.662;2023-05-23T02:29:54;8.85;;;3.00;;
76495;SDS011;65329;52.544;4.662;2023-05-23T02:32:21;9.88;;;2.88;;
76495;SDS011;65329;52.544;4.662;2023-05-23T02:34:52;10.07;;;3.55;;
76495;SDS011;65329;52.544;4.662;2023-05-23T02:37:22;6.07;;;3.03;;
76495;SDS011;65329;52.544;4.662;2023-05-23T02:39:50;11.10;;;2.92;;
76495;SDS011;65329;52.544;4.662;2023-05-23T02:42:17;9.43;;;2.58;;
76495;SDS011;65329;52.544;4.662;2023-05-23T02:44:44;7.65;;;2.97;;
76495;SDS011;65329;52.544;4.662;2023-05-23T02:47:11;8.02;;;2.63;;
76495;SDS011;65329;52.544;4.662;2023-05-23T02:49:38;7.50;;;2.72;;
76495;SDS011;65329;52.544;4.662;2023-05-23T02:52:05;7.72;;;2.85;;
76495;SDS011;65329;52.544;4.662;2023-05-23T02:54:32;10.68;;;2.97;;
76495;SDS011;65329;52.544;4.662;2023-05-23T02:57:01;11.25;;;3.10;;
76495;SDS011;65329;52.544;4.662;2023-05-23T02:59:31;8.50;;;2.60;;
76495;SDS011;65329;52.544;4.662;2023-05-23T03:01:58;9.10;;;2.50;;
76495;SDS011;65329;52.544;4.662;2023-05-23T03:04:30;11.60;;;3.35;;
76495;SDS011;65329;52.544;4.662;2023-05-23T03:06:57;8.60;;;3.17;;
76495;SDS011;65329;52.544;4.662;2023-05-23T03:09:25;8.73;;;2.95;;
76495;SDS011;65329;52.544;4.662;2023-05-23T03:11:52;8.73;;;2.80;;
76495;SDS011;65329;52.544;4.662;2023-05-23T03:14:19;9.25;;;2.28;;
76495;SDS011;65329;52.544;4.662;2023-05-23T03:16:48;12.02;;;3.67;;
76495;SDS011;65329;52.544;4.662;2023-05-23T03:19:15;11.40;;;3.33;;
76495;SDS011;65329;52.544;4.662;2023-05-23T03:21:44;9.95;;;3.15;;
76495;SDS011;65329;52.544;4.662;2023-05-23T03:24:11;11.82;;;5.10;;
76495;SDS011;65329;52.544;4.662;2023-05-23T03:26:38;10.18;;;4.00;;
76495;SDS011;65329;52.544;4.662;2023-05-23T03:29:04;10.30;;;3.53;;
76495;SDS011;65329;52.544;4.662;2023-05-23T03:31:32;13.45;;;4.60;;
76495;SDS011;65329;52.544;4.662;2023-05-23T03:33:58;8.93;;;4.35;;
76495;SDS011;65329;52.544;4.662;2023-05-23T03:36:25;13.25;;;5.03;;
76495;SDS011;65329;52.544;4.662;2023-05-23T03:38:55;9.77;;;4.50;;
76495;SDS011;65329;52.544;4.662;2023-05-23T03:41:22;14.35;;;4.93;;
76495;SDS011;65329;52.544;4.662;2023-05-23T03:43:48;13.45;;;4.82;;
76495;SDS011;65329;52.544;4.662;2023-05-23T03:46:16;15.27;;;4.97;;
76495;SDS011;65329;52.544;4.662;2023-05-23T03:48:44;13.65;;;4.68;;
76495;SDS011;65329;52.544;4.662;2023-05-23T03:51:11;9.75;;;4.35;;
76495;SDS011;65329;52.544;4.662;2023-05-23T03:53:41;12.23;;;3.97;;
76495;SDS011;65329;52.544;4.662;2023-05-23T03:56:08;11.52;;;4.90;;
76495;SDS011;65329;52.544;4.662;2023-05-23T03:58:35;19.10;;;5.72;;
76495;SDS011;65329;52.544;4.662;2023-05-23T04:01:07;12.52;;;4.82;;
76495;SDS011;65329;52.544;4.662;2023-05-23T04:03:34;11.15;;;4.75;;
76495;SDS011;65329;52.544;4.662;2023-05-23T04:06:02;15.10;;;5.05;;
76495;SDS011;65329;52.544;4.662;2023-05-23T04:08:34;15.43;;;5.70;;
76495;SDS011;65329;52.544;4.662;2023-05-23T04:11:01;12.52;;;4.93;;
76495;SDS011;65329;52.544;4.662;2023-05-23T04:13:32;14.73;;;5.45;;
76495;SDS011;65329;52.544;4.662;2023-05-23T04:15:59;16.20;;;5.55;;
76495;SDS011;65329;52.544;4.662;2023-05-23T04:18:28;19.00;;;5.70;;
76495;SDS011;65329;52.544;4.662;2023-05-23T04:20:55;12.10;;;4.90;;
76495;SDS011;65329;52.544;4.662;2023-05-23T04:23:22;14.93;;;4.78;;
76495;SDS011;65329;52.544;4.662;2023-05-23T04:25:53;15.85;;;5.68;;
76495;SDS011;65329;52.544;4.662;2023-05-23T04:28:24;13.23;;;5.28;;
76495;SDS011;65329;52.544;4.662;2023-05-23T04:30:53;10.63;;;4.03;;
76495;SDS011;65329;52.544;4.662;2023-05-23T04:33:23;10.48;;;4.70;;
76495;SDS011;65329;52.544;4.662;2023-05-23T04:35:50;14.95;;;4.50;;
76495;SDS011;65329;52.544;4.662;2023-05-23T04:38:18;9.57;;;4.03;;
76495;SDS011;65329;52.544;4.662;2023-05-23T04:40:52;12.82;;;3.97;;
76495;SDS011;65329;52.544;4.662;2023-05-23T04:43:38;12.05;;;4.70;;
76495;SDS011;65329;52.544;4.662;2023-05-23T04:46:15;13.65;;;4.50;;
76495;SDS011;65329;52.544;4.662;2023-05-23T04:48:48;12.98;;;4.50;;
76495;SDS011;65329;52.544;4.662;2023-05-23T04:51:17;11.98;;;3.90;;
76495;SDS011;65329;52.544;4.662;2023-05-23T04:53:54;7.95;;;3.53;;
76495;SDS011;65329;52.544;4.662;2023-05-23T04:56:21;7.40;;;3.95;;
76495;SDS011;65329;52.544;4.662;2023-05-23T04:58:53;8.38;;;4.25;;
76495;SDS011;65329;52.544;4.662;2023-05-23T05:01:24;10.82;;;3.97;;
76495;SDS011;65329;52.544;4.662;2023-05-23T05:03:51;9.55;;;3.75;;
76495;SDS011;65329;52.544;4.662;2023-05-23T05:06:18;8.38;;;3.92;;
76495;SDS011;65329;52.544;4.662;2023-05-23T05:08:46;9.10;;;3.25;;
76495;SDS011;65329;52.544;4.662;2023-05-23T05:11:13;6.10;;;3.00;;
76495;SDS011;65329;52.544;4.662;2023-05-23T05:13:40;4.97;;;1.85;;
76495;SDS011;65329;52.544;4.662;2023-05-23T05:16:07;7.63;;;2.63;;
76495;SDS011;65329;52.544;4.662;2023-05-23T05:18:36;6.93;;;2.13;;
76495;SDS011;65329;52.544;4.662;2023-05-23T05:23:35;4.07;;;1.98;;
76495;SDS011;65329;52.544;4.662;2023-05-23T05:26:03;7.35;;;2.05;;
76495;SDS011;65329;52.544;4.662;2023-05-23T05:28:31;5.93;;;2.10;;
76495;SDS011;65329;52.544;4.662;2023-05-23T05:30:58;7.38;;;2.13;;
76495;SDS011;65329;52.544;4.662;2023-05-23T05:33:26;8.73;;;2.15;;
76495;SDS011;65329;52.544;4.662;2023-05-23T05:36:04;9.52;;;2.33;;
76495;SDS011;65329;52.544;4.662;2023-05-23T05:38:32;6.45;;;1.85;;
76495;SDS011;65329;52.544;4.662;2023-05-23T05:40:59;12.18;;;2.33;;
76495;SDS011;65329;52.544;4.662;2023-05-23T05:43:32;9.55;;;2.33;;
76495;SDS011;65329;52.544;4.662;2023-05-23T05:45:58;12.45;;;2.05;;
76495;SDS011;65329;52.544;4.662;2023-05-23T05:48:25;7.45;;;2.42;;
76495;SDS011;65329;52.544;4.662;2023-05-23T05:50:55;9.85;;;2.08;;
76495;SDS011;65329;52.544;4.662;2023-05-23T05:53:22;10.15;;;1.88;;
76495;SDS011;65329;52.544;4.662;2023-05-23T05:55:49;6.72;;;1.83;;
76495;SDS011;65329;52.544;4.662;2023-05-23T05:58:16;11.00;;;1.75;;
76495;SDS011;65329;52.544;4.662;2023-05-23T06:00:53;9.75;;;2.00;;
76495;SDS011;65329;52.544;4.662;2023-05-23T06:03:20;11.77;;;1.90;;
76495;SDS011;65329;52.544;4.662;2023-05-23T06:05:51;7.88;;;2.33;;
76495;SDS011;65329;52.544;4.662;2023-05-23T06:08:25;9.20;;;2.15;;
76495;SDS011;65329;52.544;4.662;2023-05-23T06:10:52;8.85;;;1.95;;
76495;SDS011;65329;52.544;4.662;2023-05-23T06:13:22;9.52;;;2.70;;
76495;SDS011;65329;52.544;4.662;2023-05-23T06:15:52;12.40;;;2.25;;
76495;SDS011;65329;52.544;4.662;2023-05-23T06:18:20;9.05;;;2.50;;
76495;SDS011;65329;52.544;4.662;2023-05-23T06:20:47;10.00;;;1.83;;
76495;SDS011;65329;52.544;4.662;2023-05-23T06:23:16;8.00;;;1.77;;
76495;SDS011;65329;52.544;4.662;2023-05-23T06:25:45;8.40;;;1.70;;
76495;SDS011;65329;52.544;4.662;2023-05-23T06:28:14;8.43;;;2.30;;
76495;SDS011;65329;52.544;4.662;2023-05-23T06:30:41;8.50;;;2.08;;
76495;SDS011;65329;52.544;4.662;2023-05-23T06:33:08;13.32;;;1.88;;
76495;SDS011;65329;52.544;4.662;2023-05-23T06:35:35;11.02;;;2.10;;
76495;SDS011;65329;52.544;4.662;2023-05-23T06:38:03;14.18;;;2.90;;
76495;SDS011;65329;52.544;4.662;2023-05-23T06:40:30;10.52;;;2.10;;
76495;SDS011;65329;52.544;4.662;2023-05-23T06:42:57;13.07;;;2.58;;
76495;SDS011;65329;52.544;4.662;2023-05-23T06:45:39;13.73;;;2.33;;
76495;SDS011;65329;52.544;4.662;2023-05-23T06:48:11;16.73;;;2.60;;
76495;SDS011;65329;52.544;4.662;2023-05-23T06:50:39;9.07;;;2.85;;
76495;SDS011;65329;52.544;4.662;2023-05-23T06:53:09;9.02;;;1.77;;
76495;SDS011;65329;52.544;4.662;2023-05-23T06:55:36;13.43;;;2.80;;
76495;SDS011;65329;52.544;4.662;2023-05-23T06:58:04;13.13;;;2.33;;
76495;SDS011;65329;52.544;4.662;2023-05-23T07:00:32;15.45;;;3.70;;
76495;SDS011;65329;52.544;4.662;2023-05-23T07:03:10;9.20;;;1.90;;
76495;SDS011;65329;52.544;4.662;2023-05-23T07:05:38;11.23;;;2.63;;
76495;SDS011;65329;52.544;4.662;2023-05-23T07:08:08;9.35;;;1.92;;
76495;SDS011;65329;52.544;4.662;2023-05-23T07:10:37;12.10;;;2.63;;
76495;SDS011;65329;52.544;4.662;2023-05-23T07:15:48;12.75;;;2.92;;
76495;SDS011;65329;52.544;4.662;2023-05-23T07:18:15;9.13;;;2.25;;
76495;SDS011;65329;52.544;4.662;2023-05-23T07:20:42;9.20;;;2.20;;
76495;SDS011;65329;52.544;4.662;2023-05-23T07:23:14;8.93;;;1.98;;
76495;SDS011;65329;52.544;4.662;2023-05-23T07:25:42;11.18;;;2.17;;
76495;SDS011;65329;52.544;4.662;2023-05-23T07:28:27;7.70;;;2.33;;
76495;SDS011;65329;52.544;4.662;2023-05-23T07:30:55;11.02;;;2.20;;
76495;SDS011;65329;52.544;4.662;2023-05-23T07:33:24;9.43;;;1.80;;
76495;SDS011;65329;52.544;4.662;2023-05-23T07:35:56;8.05;;;1.85;;
76495;SDS011;65329;52.544;4.662;2023-05-23T07:38:22;10.25;;;2.22;;
76495;SDS011;65329;52.544;4.662;2023-05-23T07:40:51;12.75;;;2.33;;
76495;SDS011;65329;52.544;4.662;2023-05-23T07:43:35;7.38;;;2.28;;
76495;SDS011;65329;52.544;4.662;2023-05-23T07:46:02;11.95;;;2.60;;
76495;SDS011;65329;52.544;4.662;2023-05-23T07:48:29;11.30;;;2.17;;
76495;SDS011;65329;52.544;4.662;2023-05-23T07:50:57;9.50;;;1.65;;
76495;SDS011;65329;52.544;4.662;2023-05-23T07:53:24;8.23;;;1.92;;
76495;SDS011;65329;52.544;4.662;2023-05-23T07:55:52;7.63;;;1.83;;
76495;SDS011;65329;52.544;4.662;2023-05-23T07:58:23;8.18;;;1.70;;
76495;SDS011;65329;52.544;4.662;2023-05-23T08:00:51;10.02;;;1.92;;
76495;SDS011;65329;52.544;4.662;2023-05-23T08:03:41;9.23;;;2.22;;
76495;SDS011;65329;52.544;4.662;2023-05-23T08:06:16;16.05;;;2.78;;
76495;SDS011;65329;52.544;4.662;2023-05-23T08:08:43;11.05;;;2.47;;
76495;SDS011;65329;52.544;4.662;2023-05-23T08:11:09;5.72;;;2.08;;
76495;SDS011;65329;52.544;4.662;2023-05-23T08:13:42;8.63;;;2.00;;
76495;SDS011;65329;52.544;4.662;2023-05-23T08:16:28;10.75;;;2.10;;
76495;SDS011;65329;52.544;4.662;2023-05-23T08:18:55;11.15;;;2.22;;
76495;SDS011;65329;52.544;4.662;2023-05-23T08:21:22;11.23;;;2.25;;
76495;SDS011;65329;52.544;4.662;2023-05-23T08:23:49;12.68;;;2.83;;
76495;SDS011;65329;52.544;4.662;2023-05-23T08:26:16;5.63;;;2.08;;
76495;SDS011;65329;52.544;4.662;2023-05-23T08:28:45;9.38;;;2.45;;
76495;SDS011;65329;52.544;4.662;2023-05-23T08:31:12;10.43;;;2.35;;
76495;SDS011;65329;52.544;4.662;2023-05-23T08:33:39;12.65;;;2.42;;
76495;SDS011;65329;52.544;4.662;2023-05-23T08:36:07;9.85;;;2.30;;
76495;SDS011;65329;52.544;4.662;2023-05-23T08:38:34;13.40;;;2.80;;
76495;SDS011;65329;52.544;4.662;2023-05-23T08:43:45;9.68;;;2.30;;
76495;SDS011;65329;52.544;4.662;2023-05-23T08:46:19;7.45;;;1.70;;
76495;SDS011;65329;52.544;4.662;2023-05-23T08:48:52;7.75;;;2.30;;
76495;SDS011;65329;52.544;4.662;2023-05-23T08:51:22;8.70;;;2.10;;
76495;SDS011;65329;52.544;4.662;2023-05-23T08:53:53;7.25;;;1.85;;
76495;SDS011;65329;52.544;4.662;2023-05-23T08:56:23;9.23;;;2.00;;
76495;SDS011;65329;52.544;4.662;2023-05-23T08:58:56;7.43;;;3.00;;
76495;SDS011;65329;52.544;4.662;2023-05-23T09:01:24;8.98;;;2.38;;
76495;SDS011;65329;52.544;4.662;2023-05-23T09:03:55;7.72;;;2.30;;
76495;SDS011;65329;52.544;4.662;2023-05-23T09:06:48;11.18;;;2.20;;
76495;SDS011;65329;52.544;4.662;2023-05-23T09:09:17;11.48;;;2.53;;
76495;SDS011;65329;52.544;4.662;2023-05-23T09:11:44;8.45;;;1.73;;
76495;SDS011;65329;52.544;4.662;2023-05-23T09:14:13;11.57;;;2.40;;
76495;SDS011;65329;52.544;4.662;2023-05-23T09:16:45;6.72;;;2.47;;
76495;SDS011;65329;52.544;4.662;2023-05-23T09:19:17;9.13;;;2.50;;
76495;SDS011;65329;52.544;4.662;2023-05-23T09:21:55;13.10;;;2.70;;
76495;SDS011;65329;52.544;4.662;2023-05-23T09:24:37;11.02;;;2.50;;
76495;SDS011;65329;52.544;4.662;2023-05-23T09:27:07;6.10;;;1.80;;
76495;SDS011;65329;52.544;4.662;2023-05-23T09:29:37;9.70;;;2.70;;
76495;SDS011;65329;52.544;4.662;2023-05-23T09:32:14;8.05;;;2.45;;
76495;SDS011;65329;52.544;4.662;2023-05-23T09:40:00;12.00;;;2.53;;
76495;SDS011;65329;52.544;4.662;2023-05-23T09:42:32;10.85;;;2.08;;
76495;SDS011;65329;52.544;4.662;2023-05-23T09:44:59;11.13;;;3.00;;
76495;SDS011;65329;52.544;4.662;2023-05-23T09:47:30;9.77;;;2.20;;
76495;SDS011;65329;52.544;4.662;2023-05-23T09:49:57;10.50;;;2.10;;
76495;SDS011;65329;52.544;4.662;2023-05-23T09:52:24;10.27;;;2.00;;
76495;SDS011;65329;52.544;4.662;2023-05-23T09:54:52;11.18;;;2.50;;
76495;SDS011;65329;52.544;4.662;2023-05-23T09:59:52;12.50;;;2.17;;
76495;SDS011;65329;52.544;4.662;2023-05-23T10:02:37;7.15;;;1.88;;
76495;SDS011;65329;52.544;4.662;2023-05-23T10:08:18;10.45;;;2.17;;
76495;SDS011;65329;52.544;4.662;2023-05-23T10:11:08;9.32;;;1.85;;
76495;SDS011;65329;52.544;4.662;2023-05-23T10:13:43;9.88;;;1.88;;
76495;SDS011;65329;52.544;4.662;2023-05-23T10:16:14;7.93;;;1.95;;
76495;SDS011;65329;52.544;4.662;2023-05-23T10:18:58;8.00;;;1.95;;
76495;SDS011;65329;52.544;4.662;2023-05-23T10:21:35;7.07;;;1.52;;
76495;SDS011;65329;52.544;4.662;2023-05-23T10:24:12;8.68;;;2.15;;
76495;SDS011;65329;52.544;4.662;2023-05-23T10:26:39;7.53;;;1.80;;
76495;SDS011;65329;52.544;4.662;2023-05-23T10:29:07;10.57;;;2.00;;
76495;SDS011;65329;52.544;4.662;2023-05-23T10:31:34;7.60;;;1.65;;
76495;SDS011;65329;52.544;4.662;2023-05-23T10:34:07;9.27;;;2.25;;
76495;SDS011;65329;52.544;4.662;2023-05-23T10:45:15;8.38;;;1.30;;
76495;SDS011;65329;52.544;4.662;2023-05-23T10:47:42;11.27;;;2.08;;
76495;SDS011;65329;52.544;4.662;2023-05-23T10:50:12;9.02;;;1.95;;
76495;SDS011;65329;52.544;4.662;2023-05-23T10:52:41;7.38;;;1.52;;
76495;SDS011;65329;52.544;4.662;2023-05-23T10:55:15;5.72;;;1.42;;
76495;SDS011;65329;52.544;4.662;2023-05-23T10:57:45;10.20;;;2.22;;
76495;SDS011;65329;52.544;4.662;2023-05-23T11:00:15;9.48;;;1.48;;
76495;SDS011;65329;52.544;4.662;2023-05-23T11:02:46;9.40;;;2.53;;
76495;SDS011;65329;52.544;4.662;2023-05-23T11:05:21;11.02;;;2.15;;
76495;SDS011;65329;52.544;4.662;2023-05-23T11:21:43;11.02;;;2.03;;
76495;SDS011;65329;52.544;4.662;2023-05-23T11:24:11;11.88;;;2.38;;
76495;SDS011;65329;52.544;4.662;2023-05-23T11:26:38;11.30;;;2.03;;
76495;SDS011;65329;52.544;4.662;2023-05-23T11:29:08;8.45;;;1.75;;
76495;SDS011;65329;52.544;4.662;2023-05-23T11:31:38;7.13;;;1.92;;
76495;SDS011;65329;52.544;4.662;2023-05-23T11:34:06;11.57;;;1.88;;
76495;SDS011;65329;52.544;4.662;2023-05-23T11:36:33;5.05;;;1.70;;
76495;SDS011;65329;52.544;4.662;2023-05-23T11:39:01;11.02;;;2.25;;
76495;SDS011;65329;52.544;4.662;2023-05-23T11:41:29;13.25;;;2.58;;
76495;SDS011;65329;52.544;4.662;2023-05-23T11:43:56;7.47;;;1.90;;
76495;SDS011;65329;52.544;4.662;2023-05-23T11:46:25;11.23;;;2.15;;
76495;SDS011;65329;52.544;4.662;2023-05-23T11:48:54;7.57;;;2.10;;
76495;SDS011;65329;52.544;4.662;2023-05-23T11:51:21;6.97;;;1.90;;
76495;SDS011;65329;52.544;4.662;2023-05-23T11:53:48;5.47;;;1.70;;
76495;SDS011;65329;52.544;4.662;2023-05-23T11:56:15;7.97;;;1.80;;
76495;SDS011;65329;52.544;4.662;2023-05-23T11:58:43;6.32;;;1.67;;
76495;SDS011;65329;52.544;4.662;2023-05-23T12:01:11;4.18;;;1.33;;
76495;SDS011;65329;52.544;4.662;2023-05-23T12:03:45;8.90;;;1.63;;
76495;SDS011;65329;52.544;4.662;2023-05-23T12:06:19;10.63;;;1.75;;
76495;SDS011;65329;52.544;4.662;2023-05-23T12:08:49;7.78;;;1.55;;
76495;SDS011;65329;52.544;4.662;2023-05-23T12:11:18;8.00;;;2.03;;
76495;SDS011;65329;52.544;4.662;2023-05-23T12:13:45;9.00;;;2.00;;
76495;SDS011;65329;52.544;4.662;2023-05-23T12:16:12;8.23;;;1.45;;
76495;SDS011;65329;52.544;4.662;2023-05-23T12:18:41;12.65;;;2.00;;
76495;SDS011;65329;52.544;4.662;2023-05-23T12:21:08;7.90;;;1.60;;
76495;SDS011;65329;52.544;4.662;2023-05-23T12:23:36;10.70;;;1.95;;
76495;SDS011;65329;52.544;4.662;2023-05-23T12:26:03;8.82;;;1.65;;
76495;SDS011;65329;52.544;4.662;2023-05-23T12:28:37;6.38;;;2.45;;
76495;SDS011;65329;52.544;4.662;2023-05-23T12:33:46;10.13;;;1.42;;
76495;SDS011;65329;52.544;4.662;2023-05-23T12:36:23;5.05;;;1.55;;
76495;SDS011;65329;52.544;4.662;2023-05-23T12:38:53;8.73;;;1.80;;
76495;SDS011;65329;52.544;4.662;2023-05-23T12:41:27;6.68;;;1.42;;
76495;SDS011;65329;52.544;4.662;2023-05-23T12:43:55;11.30;;;1.50;;
76495;SDS011;65329;52.544;4.662;2023-05-23T12:46:23;6.60;;;1.48;;
76495;SDS011;65329;52.544;4.662;2023-05-23T12:48:51;7.07;;;1.48;;
76495;SDS011;65329;52.544;4.662;2023-05-23T12:51:20;9.70;;;1.40;;
76495;SDS011;65329;52.544;4.662;2023-05-23T12:53:47;7.93;;;1.55;;
76495;SDS011;65329;52.544;4.662;2023-05-23T12:56:14;8.57;;;1.92;;
76495;SDS011;65329;52.544;4.662;2023-05-23T12:58:41;7.68;;;1.65;;
76495;SDS011;65329;52.544;4.662;2023-05-23T13:01:08;7.20;;;1.45;;
76495;SDS011;65329;52.544;4.662;2023-05-23T13:03:37;7.90;;;1.85;;
76495;SDS011;65329;52.544;4.662;2023-05-23T13:06:05;10.30;;;1.80;;
76495;SDS011;65329;52.544;4.662;2023-05-23T13:08:32;6.32;;;1.83;;
76495;SDS011;65329;52.544;4.662;2023-05-23T13:10:59;8.80;;;1.50;;
76495;SDS011;65329;52.544;4.662;2023-05-23T13:13:26;7.10;;;1.35;;
76495;SDS011;65329;52.544;4.662;2023-05-23T13:15:53;6.95;;;1.30;;
76495;SDS011;65329;52.544;4.662;2023-05-23T13:18:20;10.23;;;1.60;;
76495;SDS011;65329;52.544;4.662;2023-05-23T13:20:47;5.40;;;1.55;;
76495;SDS011;65329;52.544;4.662;2023-05-23T13:23:14;6.82;;;1.10;;
76495;SDS011;65329;52.544;4.662;2023-05-23T13:25:41;9.52;;;1.65;;
76495;SDS011;65329;52.544;4.662;2023-05-23T13:28:08;8.40;;;2.47;;
76495;SDS011;65329;52.544;4.662;2023-05-23T13:30:36;8.82;;;2.50;;
76495;SDS011;65329;52.544;4.662;2023-05-23T13:33:02;10.38;;;1.25;;
76495;SDS011;65329;52.544;4.662;2023-05-23T13:35:31;7.88;;;1.30;;
76495;SDS011;65329;52.544;4.662;2023-05-23T13:37:58;5.95;;;1.73;;
76495;SDS011;65329;52.544;4.662;2023-05-23T13:40:25;10.52;;;1.73;;
76495;SDS011;65329;52.544;4.662;2023-05-23T13:42:52;6.40;;;1.38;;
76495;SDS011;65329;52.544;4.662;2023-05-23T13:45:19;8.05;;;1.23;;
76495;SDS011;65329;52.544;4.662;2023-05-23T13:47:48;6.70;;;1.40;;
76495;SDS011;65329;52.544;4.662;2023-05-23T13:50:15;8.32;;;1.40;;
76495;SDS011;65329;52.544;4.662;2023-05-23T13:52:42;7.90;;;1.83;;
76495;SDS011;65329;52.544;4.662;2023-05-23T13:55:14;10.57;;;1.60;;
76495;SDS011;65329;52.544;4.662;2023-05-23T13:57:41;5.75;;;1.52;;
76495;SDS011;65329;52.544;4.662;2023-05-23T14:00:08;8.85;;;1.63;;
76495;SDS011;65329;52.544;4.662;2023-05-23T14:02:35;9.30;;;1.83;;
76495;SDS011;65329;52.544;4.662;2023-05-23T14:05:02;9.52;;;1.65;;
76495;SDS011;65329;52.544;4.662;2023-05-23T14:07:30;13.90;;;2.03;;
76495;SDS011;65329;52.544;4.662;2023-05-23T14:09:57;7.90;;;1.63;;
76495;SDS011;65329;52.544;4.662;2023-05-23T14:12:25;7.20;;;1.75;;
76495;SDS011;65329;52.544;4.662;2023-05-23T14:14:52;6.45;;;1.75;;
76495;SDS011;65329;52.544;4.662;2023-05-23T14:17:18;11.35;;;2.80;;
76495;SDS011;65329;52.544;4.662;2023-05-23T14:19:47;11.48;;;1.80;;
76495;SDS011;65329;52.544;4.662;2023-05-23T14:22:15;5.90;;;1.45;;
76495;SDS011;65329;52.544;4.662;2023-05-23T14:24:42;9.13;;;2.05;;
76495;SDS011;65329;52.544;4.662;2023-05-23T14:27:09;8.93;;;1.50;;
76495;SDS011;65329;52.544;4.662;2023-05-23T14:29:39;11.00;;;2.00;;
76495;SDS011;65329;52.544;4.662;2023-05-23T14:32:06;8.50;;;1.80;;
76495;SDS011;65329;52.544;4.662;2023-05-23T14:34:33;8.85;;;1.40;;
76495;SDS011;65329;52.544;4.662;2023-05-23T14:37:02;5.22;;;1.60;;
76495;SDS011;65329;52.544;4.662;2023-05-23T14:39:29;8.23;;;1.80;;
76495;SDS011;65329;52.544;4.662;2023-05-23T14:41:56;5.43;;;1.73;;
76495;SDS011;65329;52.544;4.662;2023-05-23T14:44:23;11.18;;;1.65;;
76495;SDS011;65329;52.544;4.662;2023-05-23T14:46:50;11.50;;;1.77;;
76495;SDS011;65329;52.544;4.662;2023-05-23T14:49:18;7.85;;;1.77;;
76495;SDS011;65329;52.544;4.662;2023-05-23T14:51:45;8.55;;;1.60;;
76495;SDS011;65329;52.544;4.662;2023-05-23T14:54:16;9.93;;;1.98;;
76495;SDS011;65329;52.544;4.662;2023-05-23T14:56:44;10.45;;;1.50;;
76495;SDS011;65329;52.544;4.662;2023-05-23T14:59:11;10.48;;;1.38;;
76495;SDS011;65329;52.544;4.662;2023-05-23T15:01:38;4.55;;;1.00;;
76495;SDS011;65329;52.544;4.662;2023-05-23T15:04:06;6.72;;;1.17;;
76495;SDS011;65329;52.544;4.662;2023-05-23T15:06:35;12.63;;;1.92;;
76495;SDS011;65329;52.544;4.662;2023-05-23T15:09:04;6.65;;;2.00;;
76495;SDS011;65329;52.544;4.662;2023-05-23T15:11:31;12.02;;;2.50;;
76495;SDS011;65329;52.544;4.662;2023-05-23T15:14:04;3.95;;;1.10;;
76495;SDS011;65329;52.544;4.662;2023-05-23T15:16:31;4.97;;;0.98;;
76495;SDS011;65329;52.544;4.662;2023-05-23T15:18:58;7.22;;;1.50;;
76495;SDS011;65329;52.544;4.662;2023-05-23T15:21:26;8.73;;;2.05;;
76495;SDS011;65329;52.544;4.662;2023-05-23T15:23:55;6.82;;;1.77;;
76495;SDS011;65329;52.544;4.662;2023-05-23T15:26:23;10.48;;;1.65;;
76495;SDS011;65329;52.544;4.662;2023-05-23T15:28:50;5.45;;;0.98;;
76495;SDS011;65329;52.544;4.662;2023-05-23T15:31:17;10.35;;;1.85;;
76495;SDS011;65329;52.544;4.662;2023-05-23T15:33:44;8.20;;;1.55;;
76495;SDS011;65329;52.544;4.662;2023-05-23T15:36:11;7.20;;;1.80;;
76495;SDS011;65329;52.544;4.662;2023-05-23T15:38:39;5.00;;;1.40;;